Time;durP1;ratioP1;P1;durP2;ratioP2;P2;SDS_P1;SDS_P2;PMS_P1;PMS_P2;Temp;Humidity;BMP_temperature;BMP_pressure;BME280_temperature;BME280_humidity;BME280_pressure;Samples;Min_cycle;Max_cycle;Signal;HPM_P1;HPM_P2
2022/09/16 00:00:01;;;;;;;1.57;1.07;;;18.00;70.00;;;;;;926901;152;28541;-75
2022/09/16 00:02:28;;;;;;;3.30;1.30;;;18.00;70.10;;;;;;926973;152;27336;-75
2022/09/16 00:04:55;;;;;;;1.12;1.10;;;18.00;70.00;;;;;;927141;152;27323;-75
2022/09/16 00:07:21;;;;;;;4.33;1.60;;;18.00;70.40;;;;;;927785;152;27344;-75
2022/09/16 00:09:48;;;;;;;1.70;1.15;;;18.00;70.10;;;;;;927446;152;28088;-75
2022/09/16 00:12:14;;;;;;;2.60;1.70;;;17.90;70.00;;;;;;912290;153;27376;-74
2022/09/16 00:14:41;;;;;;;2.15;1.05;;;17.90;70.00;;;;;;949107;147;27277;-75
2022/09/16 00:17:07;;;;;;;2.15;1.20;;;17.90;70.20;;;;;;911144;153;27355;-76
2022/09/16 00:19:34;;;;;;;1.80;1.45;;;17.90;70.30;;;;;;948276;147;27276;-75
2022/09/16 00:22:01;;;;;;;2.40;1.32;;;17.90;70.30;;;;;;908295;153;27339;-75
2022/09/16 00:24:28;;;;;;;5.37;1.72;;;17.90;70.40;;;;;;948696;147;27324;-74
2022/09/16 00:26:54;;;;;;;3.87;1.37;;;17.90;70.40;;;;;;948686;147;27319;-76
2022/09/16 00:29:20;;;;;;;2.60;1.32;;;17.90;70.60;;;;;;948048;147;27293;-75
2022/09/16 00:31:47;;;;;;;2.87;1.10;;;17.80;70.50;;;;;;902696;153;27399;-76
2022/09/16 00:34:14;;;;;;;1.30;1.20;;;17.80;70.60;;;;;;948871;147;27413;-75
2022/09/16 00:36:40;;;;;;;1.57;1.17;;;17.80;70.60;;;;;;948234;147;28491;-75
2022/09/16 00:39:07;;;;;;;4.58;1.40;;;17.80;70.70;;;;;;901861;153;27360;-75
2022/09/16 00:41:35;;;;;;;2.52;1.42;;;17.80;70.60;;;;;;948866;147;27712;-74
2022/09/16 00:44:00;;;;;;;2.55;1.20;;;17.80;70.70;;;;;;905212;153;27398;-75
2022/09/16 00:46:41;;;;;;;3.27;1.60;;;17.70;70.70;;;;;;949386;147;27338;-76
2022/09/16 00:49:11;;;;;;;1.82;1.07;;;17.70;70.70;;;;;;948515;147;27905;-75
2022/09/16 00:51:38;;;;;;;2.08;1.20;;;17.70;70.70;;;;;;926217;152;27289;-74
2022/09/16 00:54:04;;;;;;;2.60;1.05;;;17.70;70.70;;;;;;927075;152;27283;-75
2022/09/16 00:56:31;;;;;;;2.95;1.25;;;17.70;70.70;;;;;;927350;152;27324;-75
2022/09/16 00:59:18;;;;;;;2.15;1.17;;;17.60;70.70;;;;;;926741;152;27374;-76
2022/09/16 01:01:45;;;;;;;1.82;1.00;;;17.60;70.70;;;;;;914090;154;27416;-76
2022/09/16 01:04:14;;;;;;;1.22;0.90;;;17.60;70.80;;;;;;913593;154;27482;-76
2022/09/16 01:06:41;;;;;;;1.40;1.30;;;17.60;70.90;;;;;;918524;154;27363;-77
2022/09/16 01:09:07;;;;;;;1.72;1.05;;;17.60;70.90;;;;;;949974;150;27416;-77
2022/09/16 01:11:34;;;;;;;2.00;0.90;;;17.60;71.00;;;;;;950120;150;27321;-76
2022/09/16 01:14:52;;;;;;;1.67;1.00;;;17.50;70.80;;;;;;950432;151;27304;-76
2022/09/16 01:16:27;;;;;;;2.05;1.20;;;17.50;71.00;;;;;;947486;151;27357;-76
2022/09/16 01:19:12;;;;;;;3.12;1.30;;;17.50;71.00;;;;;;948873;151;27280;-76
2022/09/16 01:21:41;;;;;;;2.02;1.30;;;17.50;70.90;;;;;;949409;148;27319;-76
2022/09/16 01:24:32;;;;;;;2.02;1.20;;;17.50;70.80;;;;;;950307;148;27417;-75
2022/09/16 01:27:10;;;;;;;1.40;1.20;;;17.50;71.00;;;;;;950478;148;27288;-76
2022/09/16 01:29:58;;;;;;;3.80;1.17;;;17.40;70.90;;;;;;949404;149;27300;-75
2022/09/16 01:32:39;;;;;;;1.57;1.20;;;17.40;71.00;;;;;;950308;151;27271;-76
2022/09/16 01:35:15;;;;;;;2.52;1.50;;;17.40;71.00;;;;;;948993;151;27326;-77
2022/09/16 01:38:03;;;;;;;2.60;1.02;;;17.30;71.00;;;;;;948961;151;27335;-75
2022/09/16 01:41:00;;;;;;;1.02;0.93;;;17.30;71.00;;;;;;950165;148;27417;-75
2022/09/16 01:43:44;;;;;;;2.37;1.15;;;17.30;71.00;;;;;;950118;148;28501;-75
2022/09/16 01:46:30;;;;;;;3.40;1.30;;;17.30;71.10;;;;;;949904;151;27343;-75
2022/09/16 01:48:58;;;;;;;2.25;1.37;;;17.20;71.00;;;;;;949233;151;27825;-76
2022/09/16 01:51:34;;;;;;;1.62;1.20;;;17.20;71.10;;;;;;942581;151;27406;-75
2022/09/16 01:54:02;;;;;;;0.82;0.82;;;17.20;71.10;;;;;;949725;151;28269;-76
2022/09/16 01:56:27;;;;;;;3.85;1.30;;;17.20;71.20;;;;;;949503;148;27297;-75
2022/09/16 01:58:53;;;;;;;2.20;0.90;;;17.20;71.30;;;;;;949007;148;27292;-76
2022/09/16 02:01:23;;;;;;;2.08;1.27;;;17.20;71.30;;;;;;950156;151;27347;-76
2022/09/16 02:03:49;;;;;;;1.80;1.00;;;17.20;71.40;;;;;;946658;149;27315;-75
2022/09/16 02:06:16;;;;;;;4.28;1.10;;;17.20;71.40;;;;;;948539;148;27257;-75
2022/09/16 02:08:52;;;;;;;2.22;1.10;;;17.20;70.70;;;;;;945710;151;27369;-75
2022/09/16 02:11:18;;;;;;;1.52;1.00;;;17.20;71.40;;;;;;948060;148;27350;-76
2022/09/16 02:13:54;;;;;;;4.55;1.37;;;17.20;71.50;;;;;;948255;151;27390;-75
2022/09/16 02:16:20;;;;;;;2.10;1.25;;;17.20;71.50;;;;;;947049;151;27339;-75
2022/09/16 02:18:47;;;;;;;4.70;1.05;;;17.20;71.50;;;;;;946533;148;28866;-75
2022/09/16 02:21:13;;;;;;;2.22;0.98;;;17.20;71.60;;;;;;947402;151;27392;-76
2022/09/16 02:23:40;;;;;;;2.85;1.57;;;17.20;71.60;;;;;;947815;151;27296;-76
2022/09/16 02:26:07;;;;;;;2.83;1.05;;;17.20;71.60;;;;;;947893;149;27225;-76
2022/09/16 02:28:33;;;;;;;2.30;1.07;;;17.20;71.60;;;;;;948005;151;27408;-76
2022/09/16 02:31:00;;;;;;;1.10;1.00;;;17.20;71.60;;;;;;948378;148;27332;-75
2022/09/16 02:33:27;;;;;;;2.35;1.20;;;17.20;71.60;;;;;;947588;151;27372;-75
2022/09/16 02:35:53;;;;;;;1.02;0.75;;;17.10;71.50;;;;;;947448;149;27261;-75
2022/09/16 02:38:25;;;;;;;1.40;1.30;;;17.10;71.60;;;;;;947578;151;27268;-76
2022/09/16 02:40:52;;;;;;;2.27;0.82;;;17.20;71.70;;;;;;945046;151;27418;-77
2022/09/16 02:43:18;;;;;;;1.90;1.10;;;17.10;71.80;;;;;;947667;148;27316;-76
2022/09/16 02:46:03;;;;;;;3.85;0.90;;;17.10;71.90;;;;;;949031;148;27373;-75
2022/09/16 02:48:36;;;;;;;1.37;0.82;;;17.10;71.90;;;;;;947619;151;27389;-75
2022/09/16 02:51:11;;;;;;;1.15;1.00;;;17.10;71.80;;;;;;946852;151;27375;-75
2022/09/16 02:53:46;;;;;;;2.08;1.02;;;17.10;71.80;;;;;;946816;151;27421;-75
2022/09/16 02:56:13;;;;;;;1.05;1.05;;;17.10;71.80;;;;;;947894;151;28430;-78
2022/09/16 02:58:40;;;;;;;3.15;1.35;;;17.00;71.90;;;;;;946823;151;27397;-78
2022/09/16 03:01:06;;;;;;;3.02;1.02;;;17.00;71.90;;;;;;948675;148;27280;-78
2022/09/16 03:03:33;;;;;;;0.80;0.80;;;17.00;71.90;;;;;;947274;151;27273;-78
2022/09/16 03:06:05;;;;;;;2.20;1.10;;;17.00;71.90;;;;;;948727;148;27338;-78
2022/09/16 03:08:32;;;;;;;2.75;0.88;;;17.00;71.90;;;;;;925962;152;27367;-78
2022/09/16 03:10:58;;;;;;;1.37;1.10;;;16.90;71.60;;;;;;927294;151;27419;-79
2022/09/16 03:13:28;;;;;;;1.80;0.90;;;16.90;71.60;;;;;;926941;151;27981;-78
2022/09/16 03:16:04;;;;;;;1.07;0.72;;;16.90;71.50;;;;;;926347;152;27324;-78
2022/09/16 03:18:51;;;;;;;1.42;0.88;;;16.90;71.40;;;;;;925602;152;27396;-78
2022/09/16 03:21:29;;;;;;;3.85;1.10;;;16.90;71.40;;;;;;927133;152;27405;-79
2022/09/16 03:24:01;;;;;;;1.60;0.90;;;16.90;71.30;;;;;;926097;152;27352;-78
2022/09/16 03:26:43;;;;;;;3.12;0.90;;;16.90;71.30;;;;;;926333;152;27371;-78
2022/09/16 03:29:24;;;;;;;4.33;1.05;;;16.80;71.30;;;;;;927126;152;27410;-78
2022/09/16 03:32:14;;;;;;;0.45;0.45;;;16.80;71.30;;;;;;927267;152;27492;-78
2022/09/16 03:34:45;;;;;;;1.37;0.90;;;16.80;71.30;;;;;;921966;151;27433;-78
2022/09/16 03:37:11;;;;;;;0.95;0.78;;;16.80;71.40;;;;;;925943;152;27528;-79
2022/09/16 03:39:38;;;;;;;2.62;0.95;;;16.80;71.40;;;;;;926762;152;27375;-78
2022/09/16 03:42:05;;;;;;;2.40;0.95;;;16.70;71.40;;;;;;927590;152;27387;-79
2022/09/16 03:44:31;;;;;;;2.30;1.00;;;16.70;71.50;;;;;;926541;151;27447;-79
2022/09/16 03:46:58;;;;;;;0.80;0.75;;;16.70;71.60;;;;;;927131;152;27975;-79
2022/09/16 03:49:24;;;;;;;8.63;1.42;;;16.70;71.60;;;;;;926885;152;27395;-78
2022/09/16 03:51:51;;;;;;;1.00;0.88;;;16.70;71.70;;;;;;927298;152;27315;-79
2022/09/16 03:54:18;;;;;;;2.67;1.00;;;16.70;71.70;;;;;;926473;152;27384;-78
2022/09/16 03:56:44;;;;;;;1.25;0.72;;;16.70;71.70;;;;;;927742;151;27477;-79
2022/09/16 03:59:11;;;;;;;3.60;1.00;;;16.70;71.80;;;;;;927466;151;27348;-79
2022/09/16 04:01:37;;;;;;;1.63;0.90;;;16.70;72.00;;;;;;926879;152;27394;-79
2022/09/16 04:04:04;;;;;;;1.73;0.73;;;16.70;71.90;;;;;;927056;152;27452;-79
2022/09/16 04:06:31;;;;;;;1.50;1.00;;;16.70;72.70;;;;;;927558;152;27398;-78
2022/09/16 04:08:59;;;;;;;4.53;1.30;;;16.70;71.90;;;;;;927045;152;27415;-79
2022/09/16 04:11:24;;;;;;;1.65;1.00;;;16.70;71.90;;;;;;927722;152;27488;-79
2022/09/16 04:13:50;;;;;;;2.52;1.00;;;16.70;71.90;;;;;;927191;152;27375;-79
2022/09/16 04:16:22;;;;;;;3.60;1.37;;;16.70;72.00;;;;;;927008;152;27349;-79
2022/09/16 04:18:49;;;;;;;1.65;0.70;;;16.70;72.00;;;;;;927473;151;27371;-79
2022/09/16 04:21:16;;;;;;;1.85;0.82;;;16.70;71.90;;;;;;926543;151;27408;-79
2022/09/16 04:23:42;;;;;;;1.27;1.10;;;16.70;72.00;;;;;;927283;152;27300;-79
2022/09/16 04:26:09;;;;;;;1.42;1.00;;;16.70;72.10;;;;;;926529;151;27351;-79
2022/09/16 04:28:35;;;;;;;3.25;1.00;;;16.70;72.10;;;;;;927137;151;27374;-79
2022/09/16 04:31:11;;;;;;;2.15;1.20;;;16.70;72.10;;;;;;927090;152;27458;-79
2022/09/16 04:33:38;;;;;;;2.08;0.93;;;16.70;72.10;;;;;;926900;152;27552;-79
2022/09/16 04:36:11;;;;;;;2.75;0.98;;;16.70;72.20;;;;;;927278;151;27916;-79
2022/09/16 04:38:36;;;;;;;3.20;0.90;;;16.60;72.30;;;;;;926940;152;27450;-79
2022/09/16 04:41:06;;;;;;;2.47;0.90;;;16.60;72.20;;;;;;926799;152;27370;-79
2022/09/16 04:43:32;;;;;;;0.80;0.78;;;16.60;72.30;;;;;;928121;152;27443;-79
2022/09/16 04:45:59;;;;;;;1.87;1.00;;;16.60;72.30;;;;;;926516;152;28377;-79
2022/09/16 04:48:25;;;;;;;1.87;0.90;;;16.60;72.30;;;;;;927338;152;27324;-79
2022/09/16 04:50:55;;;;;;;1.70;1.20;;;16.60;72.30;;;;;;927134;152;27906;-79
2022/09/16 04:53:21;;;;;;;2.15;1.00;;;16.60;72.40;;;;;;927349;151;27478;-79
2022/09/16 04:55:48;;;;;;;1.62;1.00;;;16.50;72.40;;;;;;927889;151;27378;-79
2022/09/16 04:58:14;;;;;;;2.15;1.00;;;16.50;72.50;;;;;;927227;152;27340;-79
2022/09/16 05:00:41;;;;;;;1.00;0.90;;;16.50;72.50;;;;;;926966;152;27448;-79
2022/09/16 05:03:08;;;;;;;0.97;0.80;;;16.40;72.50;;;;;;927489;151;27288;-79
2022/09/16 05:05:34;;;;;;;1.33;1.10;;;16.40;72.70;;;;;;927830;152;27432;-79
2022/09/16 05:08:01;;;;;;;2.08;0.98;;;16.30;72.80;;;;;;928147;152;27775;-79
2022/09/16 05:10:27;;;;;;;4.15;1.87;;;16.30;72.80;;;;;;950220;148;27335;-79
2022/09/16 05:12:54;;;;;;;3.02;1.10;;;16.20;72.90;;;;;;949465;151;27373;-79
2022/09/16 05:15:20;;;;;;;5.10;1.95;;;16.20;73.10;;;;;;949051;151;27277;-79
2022/09/16 05:17:47;;;;;;;1.90;0.98;;;16.20;73.20;;;;;;949972;148;27296;-79
2022/09/16 05:20:14;;;;;;;1.90;1.60;;;16.10;73.20;;;;;;949980;151;27324;-79
2022/09/16 05:22:40;;;;;;;1.00;0.90;;;16.10;73.30;;;;;;949419;151;27330;-79
2022/09/16 05:25:07;;;;;;;2.20;1.10;;;16.10;73.50;;;;;;950001;148;27284;-79
2022/09/16 05:27:34;;;;;;;1.77;1.02;;;16.10;73.70;;;;;;949546;148;27400;-79
2022/09/16 05:30:00;;;;;;;2.03;1.10;;;16.10;73.80;;;;;;949488;150;27225;-79
2022/09/16 05:32:27;;;;;;;2.97;1.10;;;16.00;74.00;;;;;;949632;151;27304;-78
2022/09/16 05:34:53;;;;;;;1.47;1.10;;;16.10;74.30;;;;;;949913;148;27401;-79
2022/09/16 05:37:20;;;;;;;1.12;1.00;;;16.10;74.50;;;;;;950404;148;28512;-79
2022/09/16 05:39:46;;;;;;;3.25;1.17;;;16.10;74.60;;;;;;950111;151;27225;-79
2022/09/16 05:42:13;;;;;;;3.07;1.77;;;16.10;75.50;;;;;;950471;150;28112;-79
2022/09/16 05:44:40;;;;;;;1.82;1.00;;;16.10;74.80;;;;;;950711;148;27421;-79
2022/09/16 05:47:06;;;;;;;1.02;1.02;;;16.20;75.00;;;;;;950318;151;27415;-79
2022/09/16 05:49:33;;;;;;;1.32;1.02;;;16.20;75.30;;;;;;950332;150;27405;-79
2022/09/16 05:51:59;;;;;;;2.83;1.00;;;16.20;75.60;;;;;;950122;151;27379;-79
2022/09/16 05:54:26;;;;;;;1.02;1.00;;;16.40;75.90;;;;;;949524;151;27292;-79
2022/09/16 05:56:52;;;;;;;3.22;1.25;;;16.50;75.90;;;;;;950424;148;27392;-78
2022/09/16 05:59:19;;;;;;;1.72;1.15;;;16.60;76.00;;;;;;950087;149;27300;-78
2022/09/16 06:01:46;;;;;;;2.62;0.93;;;16.80;76.00;;;;;;950377;148;27413;-78
2022/09/16 06:04:12;;;;;;;1.37;1.02;;;16.90;75.90;;;;;;950395;151;28793;-78
2022/09/16 06:06:39;;;;;;;1.42;1.02;;;17.00;75.70;;;;;;949995;151;27331;-78
2022/09/16 06:09:20;;;;;;;2.45;1.30;;;17.20;75.70;;;;;;948775;148;27858;-78
2022/09/16 06:11:47;;;;;;;1.67;0.90;;;17.40;75.80;;;;;;948430;148;27334;-78
2022/09/16 06:14:13;;;;;;;2.05;0.88;;;17.70;76.60;;;;;;947729;151;27336;-78
2022/09/16 06:16:40;;;;;;;1.37;1.15;;;18.00;77.60;;;;;;947647;151;27300;-78
2022/09/16 06:19:09;;;;;;;2.80;1.15;;;18.40;78.00;;;;;;948267;148;27271;-79
2022/09/16 06:21:33;;;;;;;2.50;1.05;;;18.90;77.30;;;;;;947145;151;27377;-78
2022/09/16 06:24:00;;;;;;;1.52;0.93;;;19.30;76.00;;;;;;948200;151;27304;-78
2022/09/16 06:26:27;;;;;;;1.55;1.20;;;19.70;74.50;;;;;;947765;151;27340;-79
2022/09/16 06:28:53;;;;;;;2.77;1.20;;;20.00;73.00;;;;;;948065;151;28704;-79
2022/09/16 06:31:19;;;;;;;1.17;0.90;;;20.30;71.90;;;;;;948085;151;27308;-79
2022/09/16 06:33:46;;;;;;;1.60;0.85;;;20.50;70.90;;;;;;947861;151;27291;-79
2022/09/16 06:36:13;;;;;;;4.58;1.30;;;20.60;69.90;;;;;;948180;151;27281;-78
2022/09/16 06:38:39;;;;;;;3.72;1.30;;;20.70;69.30;;;;;;947894;148;27324;-78
2022/09/16 06:41:06;;;;;;;1.45;1.00;;;20.70;68.90;;;;;;948155;151;27328;-78
2022/09/16 06:43:32;;;;;;;2.30;1.40;;;20.80;68.60;;;;;;948007;148;27400;-79
2022/09/16 06:46:02;;;;;;;2.52;0.90;;;20.80;68.30;;;;;;948314;151;27285;-78
2022/09/16 06:48:28;;;;;;;3.83;1.27;;;20.90;68.10;;;;;;947168;148;27366;-78
2022/09/16 06:51:01;;;;;;;3.62;1.30;;;20.90;67.90;;;;;;947941;148;27387;-78
2022/09/16 06:53:27;;;;;;;2.17;1.10;;;20.90;67.70;;;;;;947438;151;27320;-79
2022/09/16 06:55:54;;;;;;;2.37;1.20;;;20.90;67.80;;;;;;947277;151;27299;-78
2022/09/16 06:58:20;;;;;;;1.77;1.27;;;21.00;67.90;;;;;;947584;148;27374;-78
2022/09/16 07:00:47;;;;;;;3.87;1.50;;;21.00;67.90;;;;;;947999;148;27299;-78
2022/09/16 07:03:14;;;;;;;2.50;1.20;;;21.20;68.00;;;;;;947901;148;27766;-79
2022/09/16 07:05:40;;;;;;;2.05;1.20;;;21.30;68.20;;;;;;947552;151;28361;-79
2022/09/16 07:08:07;;;;;;;1.37;0.90;;;21.60;68.50;;;;;;948113;148;27670;-78
2022/09/16 07:10:33;;;;;;;1.12;1.00;;;21.90;68.50;;;;;;948303;147;27356;-79
2022/09/16 07:13:00;;;;;;;1.55;0.70;;;22.20;68.10;;;;;;947768;147;27276;-78
2022/09/16 07:15:27;;;;;;;1.55;0.90;;;22.50;66.90;;;;;;948304;147;27328;-78
2022/09/16 07:17:54;;;;;;;2.67;1.05;;;22.70;65.80;;;;;;948979;147;27305;-79
2022/09/16 07:20:20;;;;;;;1.60;1.00;;;22.90;64.70;;;;;;926934;152;27375;-79
2022/09/16 07:22:49;;;;;;;1.95;0.88;;;22.90;63.60;;;;;;927227;151;27352;-79
2022/09/16 07:25:13;;;;;;;2.87;1.50;;;22.90;63.10;;;;;;926656;152;27341;-79
2022/09/16 07:27:40;;;;;;;1.55;0.95;;;22.90;62.90;;;;;;927685;152;27427;-79
2022/09/16 07:30:06;;;;;;;2.37;1.20;;;22.90;63.10;;;;;;928170;152;27470;-79
2022/09/16 07:32:33;;;;;;;2.00;0.82;;;23.00;63.50;;;;;;927348;152;27485;-78
2022/09/16 07:34:59;;;;;;;1.62;0.70;;;23.20;63.90;;;;;;927429;151;27316;-79
2022/09/16 07:37:26;;;;;;;1.57;1.00;;;23.60;65.30;;;;;;926699;152;27325;-79
2022/09/16 07:39:53;;;;;;;1.30;0.78;;;24.10;65.50;;;;;;927059;151;27345;-79
2022/09/16 07:42:19;;;;;;;2.50;1.20;;;24.70;64.60;;;;;;927298;152;27396;-79
2022/09/16 07:44:46;;;;;;;1.20;1.10;;;25.30;64.00;;;;;;912330;153;27763;-79
2022/09/16 07:47:12;;;;;;;2.50;0.98;;;25.90;63.00;;;;;;928195;150;27341;-80
2022/09/16 07:49:39;;;;;;;2.05;1.00;;;26.30;61.20;;;;;;948357;147;27393;-79
2022/09/16 07:52:06;;;;;;;1.65;1.20;;;26.70;59.60;;;;;;948217;147;27310;-80
2022/09/16 07:54:32;;;;;;;2.25;0.82;;;27.00;58.30;;;;;;948825;147;27422;-78
2022/09/16 07:56:59;;;;;;;3.12;1.02;;;27.10;57.40;;;;;;927228;151;27367;-79
2022/09/16 07:59:25;;;;;;;2.83;0.90;;;27.10;56.70;;;;;;927575;151;27373;-80
2022/09/16 08:01:52;;;;;;;3.30;1.10;;;27.00;55.90;;;;;;926091;151;27348;-80
2022/09/16 08:04:18;;;;;;;2.20;1.10;;;26.80;55.20;;;;;;927600;150;27309;-79
2022/09/16 08:06:45;;;;;;;2.05;0.95;;;26.60;54.70;;;;;;948583;147;27336;-79
2022/09/16 08:09:12;;;;;;;1.02;0.60;;;26.50;55.10;;;;;;927283;152;27375;-80
2022/09/16 08:11:38;;;;;;;2.30;0.88;;;26.60;56.20;;;;;;919036;152;27507;-80
2022/09/16 08:14:05;;;;;;;1.57;0.85;;;26.90;57.00;;;;;;934516;150;27265;-80
2022/09/16 08:16:31;;;;;;;2.15;1.05;;;27.40;57.50;;;;;;935115;150;27296;-80
2022/09/16 08:18:58;;;;;;;1.60;1.10;;;28.00;57.10;;;;;;935458;150;27416;-80
2022/09/16 08:21:25;;;;;;;1.02;0.95;;;28.70;57.30;;;;;;935352;150;27356;-79
2022/09/16 08:23:51;;;;;;;1.72;1.15;;;29.40;56.20;;;;;;934106;153;27360;-80
2022/09/16 08:26:18;;;;;;;1.95;1.10;;;30.00;55.10;;;;;;934910;149;27332;-80
2022/09/16 08:28:44;;;;;;;1.75;1.00;;;30.40;53.10;;;;;;934834;150;27332;-79
2022/09/16 08:31:11;;;;;;;2.50;0.93;;;30.60;51.30;;;;;;934556;150;27340;-79
2022/09/16 08:33:40;;;;;;;2.42;0.90;;;30.50;50.10;;;;;;918837;156;27369;-80
2022/09/16 08:36:16;;;;;;;1.02;0.80;;;30.20;49.10;;;;;;930655;154;27547;-80
2022/09/16 08:38:42;;;;;;;2.75;1.30;;;29.70;48.30;;;;;;929779;151;27348;-80
2022/09/16 08:41:33;;;;;;;2.35;0.90;;;29.20;48.20;;;;;;950582;151;27297;-79
2022/09/16 08:44:18;;;;;;;1.77;1.12;;;28.70;48.20;;;;;;949549;148;27316;-78
2022/09/16 08:46:53;;;;;;;2.72;0.90;;;28.00;48.50;;;;;;950195;151;27315;-78
2022/09/16 08:49:32;;;;;;;2.95;0.90;;;27.40;48.80;;;;;;949342;150;27320;-78
2022/09/16 08:51:58;;;;;;;1.02;0.80;;;26.80;49.10;;;;;;949165;151;27377;-78
2022/09/16 08:54:25;;;;;;;1.55;0.80;;;26.20;49.40;;;;;;949755;148;27297;-78
2022/09/16 08:56:52;;;;;;;1.12;0.90;;;25.90;50.00;;;;;;950139;149;27366;-78
2022/09/16 08:59:18;;;;;;;1.82;0.90;;;25.80;51.30;;;;;;949732;151;27603;-78
2022/09/16 09:02:03;;;;;;;1.22;0.75;;;25.90;52.70;;;;;;949568;151;27450;-79
2022/09/16 09:04:30;;;;;;;1.87;0.98;;;26.30;53.90;;;;;;949847;151;27755;-79
2022/09/16 09:07:17;;;;;;;3.60;0.80;;;27.00;54.40;;;;;;950175;151;27377;-79
2022/09/16 09:09:50;;;;;;;1.87;1.07;;;27.70;54.30;;;;;;949924;150;27366;-79
2022/09/16 09:12:26;;;;;;;2.12;0.98;;;28.50;53.70;;;;;;953235;146;27409;-79
2022/09/16 09:15:10;;;;;;;1.40;1.22;;;29.10;51.60;;;;;;954799;146;27268;-78
2022/09/16 09:17:58;;;;;;;2.52;1.00;;;29.50;50.00;;;;;;954935;146;27350;-79
2022/09/16 09:20:43;;;;;;;3.87;1.15;;;29.70;48.60;;;;;;953842;146;27791;-79
2022/09/16 09:23:24;;;;;;;2.02;1.05;;;29.70;48.20;;;;;;954643;146;27331;-79
2022/09/16 09:25:56;;;;;;;1.87;1.10;;;29.50;47.80;;;;;;954623;146;27268;-78
2022/09/16 09:28:32;;;;;;;2.80;1.12;;;29.40;47.40;;;;;;954337;146;27323;-79
2022/09/16 09:31:04;;;;;;;1.72;1.15;;;29.10;46.90;;;;;;954396;146;27292;-78
2022/09/16 09:33:46;;;;;;;2.12;0.95;;;29.00;46.80;;;;;;954811;146;27337;-79
2022/09/16 09:36:28;;;;;;;1.98;0.93;;;28.90;47.20;;;;;;932577;151;27355;-79
2022/09/16 09:38:54;;;;;;;1.55;0.90;;;28.90;48.20;;;;;;942421;146;27396;-78
2022/09/16 09:41:26;;;;;;;2.10;1.00;;;29.00;48.80;;;;;;954294;146;27332;-79
2022/09/16 09:44:20;;;;;;;2.08;1.07;;;29.20;49.00;;;;;;927695;152;27369;-78
2022/09/16 09:46:47;;;;;;;1.30;0.82;;;29.50;47.50;;;;;;953731;146;27296;-79
2022/09/16 09:49:16;;;;;;;1.57;1.05;;;29.70;47.50;;;;;;954277;146;27285;-79
2022/09/16 09:51:43;;;;;;;2.47;1.05;;;29.80;47.20;;;;;;927443;152;27321;-79
2022/09/16 09:54:12;;;;;;;3.65;1.22;;;29.70;44.70;;;;;;953609;146;27355;-78
2022/09/16 09:56:42;;;;;;;1.65;1.05;;;29.50;44.50;;;;;;952173;146;27417;-79
2022/09/16 09:59:15;;;;;;;2.20;0.90;;;29.10;44.10;;;;;;927985;152;27361;-79
2022/09/16 10:01:41;;;;;;;1.07;0.98;;;28.60;44.00;;;;;;950870;146;27275;-79
2022/09/16 10:04:14;;;;;;;1.22;0.98;;;28.10;44.10;;;;;;955413;146;27249;-78
2022/09/16 10:06:40;;;;;;;1.77;0.90;;;27.60;44.30;;;;;;954735;150;27425;-79
2022/09/16 10:09:07;;;;;;;1.17;0.85;;;27.20;44.60;;;;;;954653;150;27276;-79
2022/09/16 10:11:33;;;;;;;0.98;0.82;;;27.00;45.10;;;;;;957710;146;27425;-78
2022/09/16 10:14:00;;;;;;;1.72;0.90;;;26.70;45.20;;;;;;965321;146;27324;-78
2022/09/16 10:16:29;;;;;;;3.67;0.95;;;26.50;45.40;;;;;;965670;146;27323;-78
2022/09/16 10:19:04;;;;;;;1.77;1.00;;;26.20;45.50;;;;;;965130;146;27329;-77
2022/09/16 10:21:37;;;;;;;1.87;1.00;;;25.90;45.50;;;;;;966327;146;27250;-77
2022/09/16 10:24:03;;;;;;;1.05;0.90;;;25.60;45.60;;;;;;964384;146;27300;-78
2022/09/16 10:26:30;;;;;;;2.20;1.25;;;25.40;45.70;;;;;;966352;146;27806;-78
2022/09/16 10:29:02;;;;;;;2.17;0.93;;;25.10;45.80;;;;;;963566;146;27341;-78
2022/09/16 10:31:28;;;;;;;1.77;0.60;;;24.80;45.40;;;;;;960141;146;27290;-78
2022/09/16 10:33:55;;;;;;;1.10;0.72;;;24.50;46.20;;;;;;963533;146;27259;-78
2022/09/16 10:36:21;;;;;;;0.60;0.60;;;24.30;46.70;;;;;;964776;146;27397;-78
2022/09/16 10:38:54;;;;;;;1.25;0.72;;;24.10;47.30;;;;;;964682;146;27432;-79
2022/09/16 10:41:21;;;;;;;2.85;0.85;;;24.00;47.70;;;;;;964405;146;27397;-78
2022/09/16 10:43:53;;;;;;;1.10;0.82;;;23.90;48.10;;;;;;963924;146;27339;-79
2022/09/16 10:46:19;;;;;;;2.35;0.82;;;24.00;48.50;;;;;;963292;146;27293;-79
2022/09/16 10:48:46;;;;;;;0.60;0.60;;;24.00;48.60;;;;;;965240;146;27343;-78
2022/09/16 10:51:15;;;;;;;1.75;0.70;;;24.10;48.40;;;;;;964295;146;27436;-78
2022/09/16 10:53:42;;;;;;;0.45;0.45;;;24.20;48.20;;;;;;959782;146;27304;-78
2022/09/16 10:56:17;;;;;;;1.50;0.75;;;24.20;48.10;;;;;;964224;146;27365;-78
2022/09/16 10:58:44;;;;;;;1.72;0.53;;;24.30;48.10;;;;;;964866;146;27311;-77
2022/09/16 11:01:22;;;;;;;1.42;0.90;;;24.30;48.00;;;;;;964918;146;27351;-79
2022/09/16 11:04:07;;;;;;;2.20;0.68;;;24.20;47.70;;;;;;963432;146;27400;-79
2022/09/16 11:06:43;;;;;;;1.25;0.40;;;24.20;47.80;;;;;;965117;146;27358;-78
2022/09/16 11:09:15;;;;;;;0.85;0.78;;;24.10;47.90;;;;;;962688;146;27358;-78
2022/09/16 11:12:09;;;;;;;1.15;0.80;;;24.00;47.90;;;;;;960180;146;27469;-78
2022/09/16 11:14:48;;;;;;;2.15;0.90;;;24.00;48.00;;;;;;927783;152;27396;-78
2022/09/16 11:17:41;;;;;;;2.17;0.75;;;24.00;48.20;;;;;;926914;152;27351;-78
2022/09/16 11:20:17;;;;;;;1.42;0.60;;;24.00;48.50;;;;;;927455;152;27308;-78
2022/09/16 11:22:47;;;;;;;1.92;0.60;;;24.00;48.60;;;;;;925809;152;27434;-79
2022/09/16 11:25:38;;;;;;;0.65;0.42;;;24.10;48.60;;;;;;926017;152;27332;-79
2022/09/16 11:28:32;;;;;;;1.25;0.90;;;24.10;48.50;;;;;;927862;152;27294;-78
2022/09/16 11:30:58;;;;;;;1.57;0.85;;;24.10;48.50;;;;;;927001;152;27348;-79
2022/09/16 11:33:31;;;;;;;0.80;0.57;;;24.10;48.60;;;;;;920205;152;27704;-79
2022/09/16 11:36:15;;;;;;;1.62;0.75;;;24.20;49.00;;;;;;927320;151;27445;-78
2022/09/16 11:38:44;;;;;;;1.12;0.60;;;24.20;48.40;;;;;;926867;152;27731;-79
2022/09/16 11:41:11;;;;;;;2.33;0.82;;;24.30;48.50;;;;;;926212;152;27380;-78
2022/09/16 11:44:08;;;;;;;2.47;0.78;;;24.30;48.30;;;;;;925839;152;27438;-78
2022/09/16 11:46:46;;;;;;;1.52;0.42;;;24.40;48.20;;;;;;884216;159;27466;-78
2022/09/16 11:49:18;;;;;;;0.60;0.50;;;24.40;48.00;;;;;;854063;165;27465;-78
2022/09/16 11:51:53;;;;;;;0.85;0.50;;;24.50;48.00;;;;;;887555;153;27367;-79
2022/09/16 11:54:25;;;;;;;0.50;0.50;;;24.50;47.90;;;;;;947519;147;27426;-79
2022/09/16 11:57:01;;;;;;;0.82;0.40;;;24.50;47.70;;;;;;947406;147;27665;-79
2022/09/16 11:59:39;;;;;;;0.60;0.60;;;24.40;47.50;;;;;;927516;150;27344;-79
2022/09/16 12:02:39;;;;;;;0.75;0.62;;;24.30;47.30;;;;;;927445;150;27392;-79
2022/09/16 12:05:20;;;;;;;1.60;0.80;;;24.20;47.20;;;;;;948586;147;27410;-78
2022/09/16 12:07:51;;;;;;;0.85;0.40;;;24.10;47.40;;;;;;944332;147;27750;-78
2022/09/16 12:10:50;;;;;;;0.72;0.30;;;23.80;47.40;;;;;;947643;147;27256;-78
2022/09/16 12:13:21;;;;;;;0.40;0.40;;;23.70;47.70;;;;;;927067;152;27341;-78
2022/09/16 12:15:59;;;;;;;1.47;0.53;;;23.50;47.90;;;;;;927111;152;27275;-78
2022/09/16 12:18:32;;;;;;;2.02;0.50;;;23.40;48.20;;;;;;927187;152;27379;-78
2022/09/16 12:21:07;;;;;;;0.88;0.50;;;23.40;48.40;;;;;;925174;152;27481;-78
2022/09/16 12:23:33;;;;;;;2.22;0.50;;;23.40;48.80;;;;;;915135;152;27526;-78
2022/09/16 12:26:04;;;;;;;1.17;0.55;;;23.40;48.90;;;;;;926966;152;27409;-78
2022/09/16 12:28:29;;;;;;;0.62;0.40;;;23.40;48.90;;;;;;926565;152;27474;-77
2022/09/16 12:31:23;;;;;;;0.93;0.60;;;23.50;49.00;;;;;;926545;151;27357;-78
2022/09/16 12:33:53;;;;;;;1.35;0.45;;;23.40;49.40;;;;;;927553;152;27389;-78
2022/09/16 12:36:25;;;;;;;0.50;0.50;;;23.30;49.50;;;;;;901436;152;27378;-78
2022/09/16 12:38:52;;;;;;;0.70;0.42;;;23.00;49.80;;;;;;927179;152;27327;-77
2022/09/16 12:41:30;;;;;;;0.50;0.33;;;22.60;50.10;;;;;;926864;151;27328;-77
2022/09/16 12:44:28;;;;;;;0.57;0.57;;;22.20;50.40;;;;;;927753;151;27439;-77
2022/09/16 12:47:28;;;;;;;0.88;0.40;;;21.60;50.70;;;;;;926790;152;27391;-77
2022/09/16 12:50:12;;;;;;;0.30;0.30;;;21.10;51.40;;;;;;927582;152;27716;-77
2022/09/16 12:52:54;;;;;;;0.65;0.25;;;20.50;52.30;;;;;;927674;152;27391;-77
2022/09/16 12:55:39;;;;;;;0.68;0.30;;;20.10;53.30;;;;;;914591;152;27387;-77
2022/09/16 12:58:11;;;;;;;0.20;0.20;;;19.80;54.20;;;;;;927891;152;28130;-78
2022/09/16 13:00:56;;;;;;;0.42;0.33;;;19.50;55.40;;;;;;926005;153;27399;-78
2022/09/16 13:03:23;;;;;;;0.53;0.53;;;19.30;56.20;;;;;;927462;152;27356;-78
2022/09/16 13:05:49;;;;;;;0.55;0.50;;;19.20;56.80;;;;;;927082;151;27460;-78